createdAt,value
2023-02-18T00:45:17.317Z,19.47
2023-02-18T00:48:03.851Z,18.38
2023-02-18T00:50:50.237Z,18.13
2023-02-18T00:53:36.062Z,18.95
2023-02-18T00:56:22.211Z,19.10
2023-02-18T00:59:08.178Z,19.27
2023-02-18T01:46:13.872Z,16.87
2023-02-18T01:49:01.505Z,16.73
2023-02-18T01:52:00.245Z,15.98
2023-02-18T01:54:56.342Z,16.65
2023-02-18T01:57:41.506Z,16.15
2023-02-18T02:46:09.645Z,13.80
2023-02-18T02:49:01.472Z,14.38
2023-02-18T02:52:10.279Z,14.15
2023-02-18T02:54:55.546Z,14.43
2023-02-18T02:57:47.212Z,14.55
2023-02-18T03:46:15.149Z,12.70
2023-02-18T03:49:02.851Z,11.95
2023-02-18T03:51:47.875Z,12.75
2023-02-18T03:54:33.255Z,12.43
2023-02-18T03:57:19.573Z,11.43
2023-02-18T04:45:52.109Z,10.10
2023-02-18T04:48:37.354Z,10.48
2023-02-18T04:51:22.705Z,10.63
2023-02-18T04:54:08.211Z,10.48
2023-02-18T04:56:54.106Z,10.98
2023-02-18T04:59:39.765Z,10.80
2023-02-18T05:46:37.751Z,9.67
2023-02-18T05:49:24.415Z,9.90
2023-02-18T05:52:11.244Z,8.88
2023-02-18T05:54:56.491Z,8.95
2023-02-18T05:57:42.036Z,9.48
2023-02-18T06:00:29.865Z,8.53
2023-02-18T06:03:15.310Z,9.30
2023-02-18T06:06:00.880Z,9.00
2023-02-18T06:08:46.135Z,9.43
2023-02-18T06:11:32.444Z,8.98
2023-02-18T06:14:18.723Z,8.63
2023-02-18T06:17:04.300Z,9.27
2023-02-18T06:19:49.997Z,8.82
2023-02-18T06:22:35.532Z,8.70
2023-02-18T06:25:20.825Z,8.15
2023-02-18T06:28:06.180Z,8.10
2023-02-18T06:30:52.095Z,8.80
2023-02-18T06:33:38.092Z,8.70
2023-02-18T06:36:23.343Z,9.23
2023-02-18T06:39:08.885Z,8.02
2023-02-18T06:41:54.532Z,8.53
2023-02-18T06:44:40.378Z,8.32
2023-02-18T06:47:25.935Z,8.32
2023-02-18T06:50:11.292Z,8.32
2023-02-18T06:52:57.329Z,7.80
2023-02-18T06:55:43.646Z,8.47
2023-02-18T06:58:31.329Z,7.90
2023-02-18T07:01:19.825Z,7.85
2023-02-18T07:04:06.251Z,8.52
2023-02-18T07:06:52.001Z,7.63
2023-02-18T07:09:38.197Z,8.00
2023-02-18T07:12:23.793Z,7.55
2023-02-18T07:15:10.396Z,8.25
2023-02-18T07:17:56.747Z,7.57
2023-02-18T07:20:45.112Z,6.95
2023-02-18T07:23:31.016Z,8.27
2023-02-18T07:26:17.905Z,7.78
2023-02-18T07:29:04.476Z,7.40
2023-02-18T07:31:51.762Z,7.20
2023-02-18T07:34:38.192Z,7.80
2023-02-18T07:37:24.789Z,7.70
2023-02-18T07:40:14.272Z,6.93
2023-02-18T07:43:04.004Z,7.22
2023-02-18T07:45:50.064Z,7.00
2023-02-18T07:48:36.610Z,7.47
2023-02-18T07:51:23.170Z,7.83
2023-02-18T07:54:09.190Z,6.93
2023-02-18T07:56:57.348Z,6.88
2023-02-18T07:59:43.468Z,6.68
2023-02-18T08:02:30.482Z,6.68
2023-02-18T08:05:16.920Z,6.90
2023-02-18T08:08:06.141Z,7.18
2023-02-18T08:10:54.783Z,6.80
2023-02-18T08:13:43.175Z,6.75
2023-02-18T08:16:31.690Z,6.80
2023-02-18T08:19:19.219Z,7.00
2023-02-18T08:22:05.052Z,6.50
2023-02-18T08:24:51.296Z,6.15
2023-02-18T08:27:37.052Z,6.40
2023-02-18T08:30:27.339Z,4.05
2023-02-18T08:33:13.092Z,1.50
2023-02-18T08:35:59.065Z,1.60
2023-02-18T08:38:44.574Z,1.33
2023-02-18T08:41:29.899Z,1.23
2023-02-18T08:44:15.354Z,1.13
2023-02-18T08:47:00.973Z,1.13
2023-02-18T08:49:46.529Z,1.85
2023-02-18T08:52:32.078Z,1.60
2023-02-18T08:55:20.796Z,1.63
2023-02-18T08:58:06.898Z,1.52
2023-02-18T09:00:53.130Z,1.50
2023-02-18T09:03:39.971Z,1.60
2023-02-18T09:06:25.609Z,1.52
2023-02-18T09:09:11.336Z,1.40
2023-02-18T09:11:57.288Z,1.58
2023-02-18T09:14:42.566Z,1.53
2023-02-18T09:17:29.113Z,1.50
2023-02-18T09:20:14.505Z,1.65
2023-02-18T09:23:02.511Z,1.35
2023-02-18T09:25:47.874Z,1.20
2023-02-18T09:28:34.512Z,1.57
2023-02-18T09:31:24.140Z,1.52
2023-02-18T09:34:09.984Z,1.15
2023-02-18T09:36:55.789Z,1.30
2023-02-18T09:39:41.394Z,1.45
2023-02-18T09:42:35.412Z,1.40
2023-02-18T09:45:26.810Z,1.60
2023-02-18T09:48:12.592Z,1.58
2023-02-18T09:50:59.283Z,1.25
2023-02-18T09:53:48.796Z,1.20
2023-02-18T09:56:40.412Z,1.30
2023-02-18T09:59:27.781Z,1.50
2023-02-18T10:02:24.196Z,1.35
2023-02-18T10:05:23.116Z,1.10
2023-02-18T10:08:50.807Z,1.33
2023-02-18T11:00:44.943Z,1.40
2023-02-18T11:03:42.965Z,0.90
2023-02-18T11:06:34.521Z,1.27
2023-02-18T11:09:26.894Z,1.00
2023-02-18T11:12:17.091Z,1.10
2023-02-18T11:15:14.823Z,0.80
2023-02-18T11:18:30.462Z,0.90
2023-02-18T11:21:21.419Z,1.10
2023-02-18T11:24:16.613Z,1.48
2023-02-18T11:27:02.520Z,1.52
2023-02-18T11:30:00.804Z,0.90
2023-02-18T11:32:50.286Z,0.80
2023-02-18T11:35:37.020Z,0.98
2023-02-18T11:38:50.323Z,1.05
2023-02-18T11:41:38.644Z,1.10
2023-02-18T11:44:29.579Z,1.07
2023-02-18T11:47:14.976Z,0.90
2023-02-18T11:50:09.432Z,0.98
2023-02-18T11:52:57.530Z,0.80
2023-02-18T11:55:59.949Z,0.82
2023-02-18T11:58:52.467Z,0.97
2023-02-18T12:01:50.571Z,0.93
2023-02-18T12:04:43.479Z,0.80
2023-02-18T12:07:43.274Z,0.90
2023-02-18T12:10:35.093Z,1.00
2023-02-18T12:13:31.655Z,1.03
2023-02-18T12:16:30.698Z,0.80
2023-02-18T12:19:26.012Z,1.00
2023-02-18T12:22:31.737Z,0.70
2023-02-18T12:25:16.983Z,0.70
2023-02-18T12:28:21.231Z,0.90
2023-02-18T12:31:21.014Z,0.80
2023-02-18T12:34:25.897Z,1.00
2023-02-18T12:37:27.218Z,0.90
2023-02-18T12:40:38.653Z,0.98
2023-02-18T12:43:26.927Z,0.80
2023-02-18T12:46:34.415Z,0.80
2023-02-18T12:49:31.384Z,0.90
2023-02-18T12:52:41.647Z,0.80
2023-02-18T12:55:41.459Z,0.70
2023-02-18T12:58:43.117Z,0.60
2023-02-18T13:02:01.181Z,0.98
2023-02-18T13:05:04.904Z,0.70
2023-02-18T13:08:07.291Z,0.75
2023-02-18T13:11:02.703Z,0.90
2023-02-18T13:13:59.091Z,0.90
2023-02-18T13:16:50.344Z,0.88
2023-02-18T13:19:55.229Z,1.00
2023-02-18T13:22:41.799Z,0.90
2023-02-18T13:25:42.201Z,0.70
2023-02-18T13:29:00.717Z,0.97
2023-02-18T13:32:24.275Z,0.75
2023-02-18T13:35:25.383Z,0.80
2023-02-18T13:38:20.022Z,0.98
2023-02-18T13:41:06.175Z,1.23
2023-02-18T13:43:51.319Z,1.00
2023-02-18T13:46:50.093Z,1.08
2023-02-18T13:49:39.800Z,1.10
2023-02-18T13:52:27.189Z,1.00
2023-02-18T13:55:23.115Z,1.00
2023-02-18T13:58:19.292Z,0.90
2023-02-18T14:01:11.818Z,1.15
2023-02-18T14:04:04.044Z,1.25
2023-02-18T14:07:27.767Z,1.10
2023-02-18T14:10:15.293Z,0.80
2023-02-18T14:13:52.759Z,1.20
2023-02-18T14:17:14.279Z,1.30
2023-02-18T14:19:59.724Z,1.25
2023-02-18T14:22:50.784Z,1.00
2023-02-18T14:25:43.045Z,1.35
2023-02-18T14:28:53.719Z,1.17
2023-02-18T14:31:49.169Z,0.75
2023-02-18T14:34:51.850Z,0.93
2023-02-18T14:38:10.545Z,0.80
2023-02-18T14:41:16.923Z,0.88
2023-02-18T14:44:41.216Z,0.90
2023-02-18T14:47:58.152Z,1.10
2023-02-18T14:50:50.052Z,0.93
2023-02-18T14:53:43.584Z,0.80
2023-02-18T14:56:30.144Z,1.00
2023-02-18T14:59:16.703Z,0.90
2023-02-18T15:02:02.804Z,1.00
2023-02-18T15:04:50.743Z,1.02
2023-02-18T15:07:37.365Z,0.75
2023-02-18T15:10:25.722Z,1.30
2023-02-18T15:13:29.685Z,1.00
2023-02-18T15:16:42.794Z,1.08
2023-02-18T15:19:35.948Z,0.80
2023-02-18T15:22:24.271Z,0.80
2023-02-18T15:25:13.245Z,0.90
2023-02-18T15:27:58.578Z,0.93
2023-02-18T15:30:45.469Z,1.02
2023-02-18T15:33:31.216Z,0.80
2023-02-18T15:36:16.831Z,0.88
2023-02-18T15:39:04.131Z,1.02
2023-02-18T15:42:09.494Z,0.93
2023-02-18T15:45:06.690Z,1.02
2023-02-18T15:47:57.998Z,1.00
2023-02-18T15:50:52.196Z,1.10
2023-02-18T15:53:40.736Z,0.80
2023-02-18T15:56:31.468Z,0.90
2023-02-18T15:59:20.696Z,1.00
2023-02-18T16:02:16.869Z,1.00
2023-02-18T16:05:05.428Z,0.80
2023-02-18T16:07:57.308Z,0.90
2023-02-18T16:10:48.003Z,0.87
2023-02-18T16:13:40.228Z,1.08
2023-02-18T16:16:44.014Z,0.90
2023-02-18T16:19:32.255Z,0.98
2023-02-18T16:22:39.012Z,0.90
2023-02-18T16:25:41.716Z,1.10
2023-02-18T16:28:32.847Z,1.00
2023-02-18T16:31:20.708Z,1.35
2023-02-18T16:34:06.961Z,0.90
2023-02-18T16:37:11.077Z,0.93
2023-02-18T16:40:00.165Z,1.00
2023-02-18T16:42:46.413Z,1.13
2023-02-18T16:45:49.175Z,0.98
2023-02-18T16:49:01.877Z,0.90
2023-02-18T16:51:48.949Z,1.00
2023-02-18T16:54:34.720Z,1.20
2023-02-18T16:57:19.969Z,1.10
2023-02-18T17:00:07.776Z,1.02
2023-02-18T17:02:57.008Z,0.80
2023-02-18T17:05:43.989Z,1.00
2023-02-18T17:08:29.571Z,1.00
2023-02-18T17:11:25.829Z,0.98
2023-02-18T17:14:15.346Z,0.88
2023-02-18T17:17:00.854Z,1.00
2023-02-18T17:19:46.417Z,1.20
2023-02-18T17:22:32.172Z,0.70
2023-02-18T17:25:30.677Z,0.90
2023-02-18T17:28:19.203Z,0.85
2023-02-18T17:31:05.063Z,1.00
2023-02-18T17:33:50.663Z,1.10
2023-02-18T17:36:35.858Z,0.90
2023-02-18T17:39:21.445Z,1.00
2023-02-18T17:42:11.282Z,1.20
2023-02-18T17:44:56.649Z,1.10
2023-02-18T17:47:41.854Z,0.88
2023-02-18T17:50:28.655Z,1.00
2023-02-18T17:53:15.253Z,1.30
2023-02-18T17:56:00.618Z,1.35
2023-02-18T17:58:46.676Z,0.95
2023-02-18T18:01:31.655Z,1.10
2023-02-18T18:04:18.796Z,0.93
2023-02-18T18:07:04.491Z,1.02
2023-02-18T18:09:49.901Z,0.90
2023-02-18T18:12:35.601Z,1.17
2023-02-18T18:15:34.743Z,1.00
2023-02-18T18:18:20.026Z,0.93
2023-02-18T18:21:05.646Z,1.05
2023-02-18T18:23:51.286Z,1.20
2023-02-18T18:26:36.595Z,0.80
2023-02-18T18:29:21.628Z,1.35
2023-02-18T18:32:06.936Z,1.23
2023-02-18T18:34:52.205Z,0.90
2023-02-18T18:37:37.723Z,1.10
2023-02-18T18:40:26.605Z,0.88
2023-02-18T18:43:24.287Z,0.80
2023-02-18T18:46:09.781Z,0.80
2023-02-18T18:48:55.175Z,1.35
2023-02-18T18:51:40.609Z,1.67
2023-02-18T18:54:26.007Z,1.05
2023-02-18T18:57:11.172Z,0.90
2023-02-18T18:59:56.528Z,1.03
2023-02-18T19:02:41.762Z,1.23
2023-02-18T19:05:33.597Z,0.70
2023-02-18T19:08:20.380Z,1.10
2023-02-18T19:11:05.957Z,1.02
2023-02-18T19:13:51.240Z,0.90
2023-02-18T19:16:39.197Z,1.40
2023-02-18T19:19:24.543Z,0.80
2023-02-18T19:22:09.793Z,0.80
2023-02-18T19:24:54.799Z,1.05
2023-02-18T19:27:41.994Z,1.00
2023-02-18T19:30:31.000Z,1.23
2023-02-18T19:33:17.377Z,0.90
2023-02-18T19:36:11.345Z,1.00
2023-02-18T19:38:57.771Z,0.98
2023-02-18T19:41:42.865Z,0.90
2023-02-18T19:44:33.867Z,1.00
2023-02-18T19:47:19.194Z,0.80
2023-02-18T19:50:06.283Z,1.00
2023-02-18T19:52:55.432Z,1.00
2023-02-18T19:55:40.747Z,0.83
2023-02-18T19:58:26.305Z,0.82
2023-02-18T20:01:16.457Z,1.10
2023-02-18T20:04:01.922Z,1.05
2023-02-18T20:06:47.142Z,1.13
2023-02-18T20:09:32.402Z,1.00
2023-02-18T20:12:17.576Z,0.85
2023-02-18T20:15:03.858Z,1.08
2023-02-18T20:17:49.816Z,1.02
2023-02-18T20:20:34.842Z,0.90
2023-02-18T20:23:20.183Z,1.00
2023-02-18T20:26:10.124Z,0.85
2023-02-18T20:28:56.461Z,1.00
2023-02-18T20:31:45.014Z,0.90
2023-02-18T20:34:31.205Z,1.00
2023-02-18T20:37:16.551Z,1.13
2023-02-18T20:40:01.827Z,1.20
2023-02-18T20:42:47.216Z,1.20
2023-02-18T20:45:32.568Z,1.00
2023-02-18T20:48:17.852Z,0.85
2023-02-18T20:51:10.508Z,0.83
2023-02-18T20:53:55.812Z,1.10
2023-02-18T20:56:42.267Z,1.00
2023-02-18T20:59:30.267Z,0.90
2023-02-18T21:02:16.713Z,1.55
2023-02-18T21:05:01.968Z,1.80
2023-02-18T21:07:47.259Z,2.70
2023-02-18T21:10:39.809Z,2.83
2023-02-18T21:13:25.989Z,2.78
2023-02-18T21:16:11.131Z,2.60
2023-02-18T21:18:56.457Z,2.90
2023-02-18T21:21:42.954Z,3.28
2023-02-18T21:24:28.532Z,3.30
2023-02-18T21:27:13.741Z,3.53
2023-02-18T21:30:00.620Z,3.45
2023-02-18T21:32:46.606Z,3.43
2023-02-18T21:35:35.893Z,3.30
2023-02-18T21:38:21.237Z,3.15
2023-02-18T21:41:06.605Z,3.25
2023-02-18T21:43:52.287Z,3.25
2023-02-18T21:46:39.672Z,3.37
2023-02-18T21:49:24.846Z,3.20
2023-02-18T21:52:10.146Z,3.17
2023-02-18T21:54:55.802Z,3.33
2023-02-18T21:57:40.887Z,3.85
2023-02-18T22:00:26.393Z,3.93
2023-02-18T22:03:12.254Z,3.20
2023-02-18T22:05:57.711Z,3.30
2023-02-18T22:08:43.542Z,3.17
2023-02-18T22:11:29.721Z,3.25
2023-02-18T22:14:17.064Z,3.00
2023-02-18T22:17:02.526Z,3.33
2023-02-18T22:19:48.770Z,3.15
2023-02-18T22:22:34.683Z,2.95
2023-02-18T22:25:19.846Z,2.92
2023-02-18T22:28:07.330Z,2.97
2023-02-18T22:30:52.569Z,3.20
2023-02-18T22:33:38.562Z,2.90
2023-02-18T22:36:26.194Z,2.65
2023-02-18T22:39:12.783Z,2.85
2023-02-18T22:41:57.739Z,2.90
2023-02-18T22:44:43.204Z,2.60
2023-02-18T22:47:28.486Z,3.05
2023-02-18T22:50:13.869Z,2.70
2023-02-18T22:52:59.315Z,2.42
2023-02-18T22:55:44.695Z,2.93
2023-02-18T22:58:31.701Z,2.75
2023-02-18T23:01:21.683Z,2.70
2023-02-18T23:04:10.423Z,2.80
2023-02-18T23:06:56.955Z,2.90
2023-02-18T23:09:42.391Z,2.77
2023-02-18T23:12:27.430Z,2.70
2023-02-18T23:15:14.210Z,2.90
2023-02-18T23:17:59.852Z,2.65
2023-02-18T23:21:03.695Z,3.13
2023-02-18T23:23:51.993Z,2.70
2023-02-18T23:26:37.545Z,2.88
2023-02-18T23:29:22.770Z,3.08
2023-02-18T23:32:08.223Z,2.80
2023-02-18T23:34:53.565Z,2.83
2023-02-18T23:37:57.387Z,3.30
2023-02-18T23:40:42.836Z,2.55
2023-02-18T23:43:30.689Z,2.55
2023-02-18T23:46:18.024Z,2.70
2023-02-18T23:49:04.125Z,2.92
2023-02-18T23:51:51.497Z,3.07
2023-02-18T23:54:36.495Z,2.60
2023-02-18T23:57:22.003Z,3.10
